createdAt,value
2022-08-21T00:02:24.009Z,18.38
2022-08-21T00:04:57.608Z,18.38
2022-08-21T00:07:25.429Z,18.39
2022-08-21T00:09:53.717Z,18.37
2022-08-21T00:12:23.657Z,18.30
2022-08-21T00:14:50.292Z,18.22
2022-08-21T00:17:21.399Z,18.19
2022-08-21T00:19:47.960Z,18.20
2022-08-21T00:22:15.083Z,18.21
2022-08-21T00:24:41.743Z,18.21
2022-08-21T00:27:08.603Z,18.19
2022-08-21T00:29:35.163Z,18.21
2022-08-21T00:32:01.927Z,18.20
2022-08-21T00:34:28.897Z,18.21
2022-08-21T00:36:55.483Z,18.19
2022-08-21T00:39:22.330Z,18.19
2022-08-21T00:41:48.926Z,18.16
2022-08-21T00:44:16.709Z,18.05
2022-08-21T00:46:44.309Z,17.96
2022-08-21T00:49:12.755Z,17.94
2022-08-21T00:51:48.585Z,17.95
2022-08-21T00:54:20.205Z,17.97
2022-08-21T00:56:53.759Z,17.98
2022-08-21T00:59:23.178Z,18.01
2022-08-21T01:01:52.704Z,18.03
2022-08-21T01:04:20.310Z,18.02
2022-08-21T01:06:47.081Z,18.00
2022-08-21T01:09:14.824Z,17.97
2022-08-21T01:11:43.951Z,17.97
2022-08-21T01:14:14.211Z,17.96
2022-08-21T01:16:45.271Z,17.95
2022-08-21T01:19:12.249Z,17.92
2022-08-21T01:21:38.942Z,17.87
2022-08-21T01:24:08.247Z,17.85
2022-08-21T01:26:36.125Z,17.81
2022-08-21T01:29:08.835Z,17.81
2022-08-21T01:31:35.499Z,17.82
2022-08-21T01:34:02.455Z,17.83
2022-08-21T01:36:29.086Z,17.80
2022-08-21T01:38:56.594Z,17.77
2022-08-21T01:41:25.723Z,17.76
2022-08-21T01:43:52.327Z,17.73
2022-08-21T01:46:19.408Z,17.72
2022-08-21T01:48:46.124Z,17.70
2022-08-21T01:51:12.901Z,17.67
2022-08-21T01:53:39.828Z,17.64
2022-08-21T01:56:15.776Z,17.63
2022-08-21T01:58:44.998Z,17.63
2022-08-21T02:01:15.172Z,17.65
2022-08-21T02:03:42.275Z,17.64
2022-08-21T02:06:12.892Z,17.63
2022-08-21T02:08:39.696Z,17.65
2022-08-21T02:11:06.479Z,17.65
2022-08-21T02:13:33.119Z,17.65
2022-08-21T02:15:59.778Z,17.65
2022-08-21T02:18:26.438Z,17.65
2022-08-21T02:20:56.109Z,17.64
2022-08-21T02:23:26.450Z,17.64
2022-08-21T02:25:56.043Z,17.63
2022-08-21T02:28:22.725Z,17.64
2022-08-21T02:30:49.550Z,17.63
2022-08-21T02:33:17.310Z,17.63
2022-08-21T02:35:45.998Z,17.61
2022-08-21T02:38:16.574Z,17.60
2022-08-21T02:40:48.233Z,17.58
2022-08-21T02:43:18.998Z,17.56
2022-08-21T02:45:46.832Z,17.55
2022-08-21T02:48:16.678Z,17.53
2022-08-21T02:50:46.767Z,17.53
2022-08-21T02:53:17.368Z,17.53
2022-08-21T02:55:49.233Z,17.52
2022-08-21T02:58:21.071Z,17.52
2022-08-21T03:00:48.105Z,17.51
2022-08-21T03:03:15.741Z,17.48
2022-08-21T03:05:43.652Z,17.49
2022-08-21T03:08:12.161Z,17.53
2022-08-21T03:10:41.769Z,17.56
2022-08-21T03:13:09.318Z,17.58
2022-08-21T03:15:36.470Z,17.59
2022-08-21T03:18:04.610Z,17.60
2022-08-21T03:20:33.258Z,17.63
2022-08-21T03:23:01.025Z,17.65
2022-08-21T03:25:39.990Z,17.67
2022-08-21T03:28:12.848Z,17.68
2022-08-21T03:30:40.859Z,17.67
2022-08-21T03:33:07.414Z,17.66
2022-08-21T03:35:34.000Z,17.65
2022-08-21T03:38:00.621Z,17.65
2022-08-21T03:40:27.461Z,17.65
2022-08-21T03:42:54.223Z,17.68
2022-08-21T03:45:21.756Z,17.71
2022-08-21T03:48:03.713Z,17.74
2022-08-21T03:50:33.251Z,17.72
2022-08-21T03:53:01.927Z,17.70
2022-08-21T03:55:29.207Z,17.70
2022-08-21T03:57:56.872Z,17.71
2022-08-21T04:00:24.500Z,17.74
2022-08-21T04:02:51.836Z,17.75
2022-08-21T04:05:28.326Z,17.77
2022-08-21T04:07:56.877Z,17.78
2022-08-21T04:10:25.505Z,17.73
2022-08-21T04:12:53.499Z,17.72
2022-08-21T04:15:21.779Z,17.74
2022-08-21T04:17:49.335Z,17.77
2022-08-21T04:20:17.513Z,17.79
2022-08-21T04:22:45.336Z,17.81
2022-08-21T04:25:13.927Z,17.85
2022-08-21T04:27:41.315Z,17.86
2022-08-21T04:30:10.044Z,17.85
2022-08-21T04:32:38.269Z,17.85
2022-08-21T04:35:09.383Z,17.84
2022-08-21T04:37:42.134Z,17.85
2022-08-21T04:40:11.269Z,17.87
2022-08-21T04:42:47.291Z,17.90
2022-08-21T04:45:23.137Z,17.88
2022-08-21T04:47:55.076Z,17.90
2022-08-21T04:50:25.922Z,17.90
2022-08-21T04:52:53.195Z,17.89
2022-08-21T04:55:20.902Z,17.87
2022-08-21T04:57:48.949Z,17.87
2022-08-21T05:00:19.737Z,17.88
2022-08-21T05:02:48.739Z,17.88
2022-08-21T05:05:17.031Z,17.89
2022-08-21T05:07:45.594Z,17.89
2022-08-21T05:10:14.920Z,17.87
2022-08-21T05:12:43.917Z,17.88
2022-08-21T05:15:15.585Z,17.91
2022-08-21T05:17:42.799Z,17.91
2022-08-21T05:20:13.308Z,17.94
2022-08-21T05:22:40.145Z,17.95
2022-08-21T05:25:10.323Z,17.97
2022-08-21T05:27:39.007Z,17.98
2022-08-21T05:30:08.767Z,17.98
2022-08-21T05:32:36.205Z,17.98
2022-08-21T05:35:05.232Z,17.91
2022-08-21T05:37:31.866Z,17.85
2022-08-21T05:40:20.207Z,17.87
2022-08-21T05:42:45.664Z,17.90
2022-08-21T05:45:42.122Z,17.90
2022-08-21T05:48:11.915Z,17.92
2022-08-21T05:50:39.811Z,17.96
2022-08-21T05:53:07.722Z,17.98
2022-08-21T05:55:34.642Z,17.99
2022-08-21T05:58:01.733Z,18.00
2022-08-21T06:00:28.434Z,17.99
2022-08-21T06:02:55.175Z,17.97
2022-08-21T06:05:36.392Z,17.96
2022-08-21T06:08:04.843Z,17.98
2022-08-21T06:10:32.220Z,17.99
2022-08-21T06:12:59.060Z,17.99
2022-08-21T06:15:26.066Z,18.00
2022-08-21T06:17:53.978Z,18.03
2022-08-21T06:20:20.824Z,18.06
2022-08-21T06:22:47.405Z,18.10
2022-08-21T06:25:13.997Z,18.13
2022-08-21T06:27:40.843Z,18.15
2022-08-21T06:30:08.395Z,18.18
2022-08-21T06:32:35.717Z,18.21
2022-08-21T06:35:02.317Z,18.22
2022-08-21T06:37:29.113Z,18.25
2022-08-21T06:39:55.944Z,18.27
2022-08-21T06:42:22.509Z,18.30
2022-08-21T06:44:55.248Z,18.31
2022-08-21T06:47:21.851Z,18.33
2022-08-21T06:49:48.492Z,18.37
2022-08-21T06:52:16.789Z,18.37
2022-08-21T06:54:43.465Z,18.36
2022-08-21T06:57:10.095Z,18.41
2022-08-21T06:59:36.736Z,18.51
2022-08-21T07:02:03.896Z,18.58
2022-08-21T07:04:31.023Z,18.63
2022-08-21T07:06:57.619Z,18.65
2022-08-21T07:09:24.962Z,18.71
2022-08-21T07:11:54.297Z,18.77
2022-08-21T07:14:20.957Z,18.87
2022-08-21T07:16:48.515Z,18.89
2022-08-21T07:19:15.069Z,18.86
2022-08-21T07:21:41.810Z,18.80
2022-08-21T07:24:08.705Z,18.76
2022-08-21T07:26:35.892Z,18.77
2022-08-21T07:29:02.554Z,18.78
2022-08-21T07:31:29.142Z,18.79
2022-08-21T07:33:56.415Z,18.85
2022-08-21T07:36:23.202Z,18.89
2022-08-21T07:38:52.433Z,18.94
2022-08-21T07:41:26.426Z,18.98
2022-08-21T07:43:53.727Z,19.03
2022-08-21T07:46:20.750Z,19.07
2022-08-21T07:48:47.707Z,19.11
2022-08-21T07:51:17.695Z,19.14
2022-08-21T07:53:51.052Z,19.17
2022-08-21T07:56:17.987Z,19.21
2022-08-21T07:58:44.739Z,19.27
2022-08-21T08:01:11.881Z,19.32
2022-08-21T08:03:39.753Z,19.33
2022-08-21T08:06:09.662Z,19.33
2022-08-21T08:08:38.688Z,19.33
2022-08-21T08:11:05.632Z,19.34
2022-08-21T08:13:32.576Z,19.37
2022-08-21T08:15:59.429Z,19.42
2022-08-21T08:18:26.162Z,19.48
2022-08-21T08:20:53.343Z,19.55
2022-08-21T08:23:20.074Z,19.58
2022-08-21T08:25:46.671Z,19.63
2022-08-21T08:28:17.281Z,19.63
2022-08-21T08:30:46.385Z,19.56
2022-08-21T08:33:14.161Z,19.51
2022-08-21T08:35:42.809Z,19.49
2022-08-21T08:38:09.613Z,19.43
2022-08-21T08:40:45.075Z,19.44
2022-08-21T08:43:14.565Z,19.50
2022-08-21T08:45:47.763Z,19.57
2022-08-21T08:48:20.339Z,19.69
2022-08-21T08:51:01.802Z,19.82
2022-08-21T08:53:48.915Z,19.99
2022-08-21T08:56:15.602Z,20.07
2022-08-21T08:58:45.447Z,20.15
2022-08-21T09:01:18.502Z,20.21
2022-08-21T09:03:51.235Z,20.22
2022-08-21T09:06:53.021Z,20.19
2022-08-21T09:09:23.671Z,20.19
2022-08-21T09:12:10.078Z,20.18
2022-08-21T09:15:12.291Z,20.18
2022-08-21T09:18:07.860Z,20.32
2022-08-21T09:21:11.039Z,20.47
2022-08-21T09:24:01.011Z,20.56
2022-08-21T09:27:07.193Z,20.63
2022-08-21T09:29:38.105Z,20.66
2022-08-21T09:32:18.635Z,20.62
2022-08-21T09:34:58.423Z,20.59
2022-08-21T09:37:26.637Z,20.59
2022-08-21T09:39:53.250Z,20.55
2022-08-21T09:42:29.599Z,20.55
2022-08-21T09:45:16.518Z,20.56
2022-08-21T09:47:44.865Z,20.51
2022-08-21T09:50:15.322Z,20.47
2022-08-21T09:53:02.075Z,20.48
2022-08-21T09:56:06.091Z,20.60
2022-08-21T09:58:36.821Z,20.67
2022-08-21T10:01:06.174Z,20.70
2022-08-21T10:03:33.171Z,20.74
2022-08-21T10:06:09.220Z,20.81
2022-08-21T10:08:38.618Z,20.88
2022-08-21T10:11:12.464Z,20.89
2022-08-21T10:13:54.103Z,20.85
2022-08-21T10:16:48.059Z,20.83
2022-08-21T10:19:20.833Z,20.83
2022-08-21T10:22:08.349Z,20.75
2022-08-21T10:24:44.029Z,20.74
2022-08-21T10:27:13.399Z,20.80
2022-08-21T10:30:02.565Z,20.78
2022-08-21T10:32:51.286Z,20.77
2022-08-21T10:35:35.134Z,20.81
2022-08-21T10:38:55.335Z,20.85
2022-08-21T10:41:56.073Z,20.83
2022-08-21T10:44:50.759Z,20.87
2022-08-21T10:47:29.645Z,20.90
2022-08-21T10:50:06.275Z,20.96
2022-08-21T10:53:00.262Z,20.99
2022-08-21T10:55:37.457Z,20.93
2022-08-21T10:58:17.506Z,20.93
2022-08-21T11:00:58.933Z,20.94
2022-08-21T11:03:36.406Z,20.96
2022-08-21T11:06:20.923Z,20.97
2022-08-21T11:09:10.021Z,21.00
2022-08-21T11:12:13.910Z,21.01
2022-08-21T11:15:29.145Z,21.00
2022-08-21T11:18:28.683Z,21.08
2022-08-21T11:21:14.026Z,21.15
2022-08-21T11:24:04.514Z,21.14
2022-08-21T11:26:58.014Z,21.20
2022-08-21T11:29:42.192Z,21.31
2022-08-21T11:32:42.550Z,21.40
2022-08-21T11:35:41.623Z,21.53
2022-08-21T11:38:44.198Z,21.58
2022-08-21T11:41:28.712Z,21.65
2022-08-21T11:44:15.426Z,21.71
2022-08-21T11:47:03.882Z,21.79
2022-08-21T11:49:44.154Z,21.77
2022-08-21T11:52:43.082Z,21.85
2022-08-21T11:55:27.542Z,21.96
2022-08-21T11:58:03.077Z,22.03
2022-08-21T12:00:38.762Z,22.02
2022-08-21T12:03:31.199Z,22.04
2022-08-21T12:06:09.416Z,22.11
2022-08-21T12:08:47.102Z,22.17
2022-08-21T12:11:19.697Z,22.21
2022-08-21T12:14:01.314Z,22.22
2022-08-21T12:16:48.806Z,22.22
2022-08-21T12:19:47.923Z,22.28
2022-08-21T12:22:15.778Z,22.36
2022-08-21T12:24:57.258Z,22.40
2022-08-21T12:27:41.890Z,22.46
2022-08-21T12:30:43.723Z,22.53
2022-08-21T12:33:37.232Z,22.54
2022-08-21T12:36:43.807Z,22.48
2022-08-21T12:39:22.066Z,22.39
2022-08-21T12:42:01.216Z,22.33
2022-08-21T12:44:36.886Z,22.28
2022-08-21T12:47:06.822Z,22.28
2022-08-21T12:49:44.383Z,22.22
2022-08-21T12:52:23.806Z,22.26
2022-08-21T12:54:50.463Z,22.32
2022-08-21T12:57:23.973Z,22.31
2022-08-21T13:00:08.685Z,22.32
2022-08-21T13:02:41.120Z,22.39
2022-08-21T13:05:12.704Z,22.55
2022-08-21T13:07:46.131Z,22.63
2022-08-21T13:10:27.654Z,22.75
2022-08-21T13:13:00.615Z,22.86
2022-08-21T13:15:34.325Z,22.90
2022-08-21T13:18:03.647Z,22.88
2022-08-21T13:20:35.352Z,22.89
2022-08-21T13:23:04.164Z,22.96
2022-08-21T13:25:37.095Z,23.05
2022-08-21T13:28:12.749Z,23.11
2022-08-21T13:30:49.431Z,23.15
2022-08-21T13:33:18.726Z,23.14
2022-08-21T13:36:02.198Z,23.04
2022-08-21T13:38:33.952Z,23.02
2022-08-21T13:41:06.879Z,23.10
2022-08-21T13:43:37.230Z,23.19
2022-08-21T13:46:10.761Z,23.30
2022-08-21T13:48:38.483Z,23.35
2022-08-21T13:51:06.177Z,23.40
2022-08-21T13:53:36.154Z,23.41
2022-08-21T13:56:05.599Z,23.42
2022-08-21T13:58:44.051Z,23.44
2022-08-21T14:01:23.531Z,23.48
2022-08-21T14:03:53.219Z,23.49
2022-08-21T14:06:24.241Z,23.52
2022-08-21T14:08:55.982Z,23.51
2022-08-21T14:11:22.723Z,23.52
2022-08-21T14:13:57.964Z,23.57
2022-08-21T14:16:28.236Z,23.66
2022-08-21T14:19:09.216Z,23.82
2022-08-21T14:21:41.863Z,24.10
2022-08-21T14:24:40.507Z,24.38
2022-08-21T14:27:08.543Z,24.55
2022-08-21T14:29:44.010Z,24.76
2022-08-21T14:32:36.746Z,24.99
2022-08-21T14:35:03.580Z,25.19
2022-08-21T14:37:30.129Z,25.27
2022-08-21T14:39:56.853Z,25.26
2022-08-21T14:42:24.930Z,25.28
2022-08-21T14:44:52.266Z,25.32
2022-08-21T14:47:22.016Z,25.29
2022-08-21T14:49:48.883Z,25.23
2022-08-21T14:52:15.491Z,25.18
2022-08-21T14:54:42.219Z,25.16
2022-08-21T14:57:13.106Z,25.14
2022-08-21T14:59:39.978Z,25.19
2022-08-21T15:02:07.941Z,25.23
2022-08-21T15:04:35.412Z,25.24
2022-08-21T15:07:02.655Z,25.18
2022-08-21T15:09:29.466Z,25.12
2022-08-21T15:11:58.357Z,25.12
2022-08-21T15:14:28.033Z,25.16
2022-08-21T15:16:54.772Z,25.27
2022-08-21T15:19:22.004Z,25.32
2022-08-21T15:21:48.922Z,25.29
2022-08-21T15:24:15.964Z,25.21
2022-08-21T15:26:43.874Z,25.12
2022-08-21T15:29:10.621Z,25.08
2022-08-21T15:31:37.478Z,25.01
2022-08-21T15:34:04.218Z,24.97
2022-08-21T15:36:30.811Z,25.04
2022-08-21T15:38:57.418Z,25.10
2022-08-21T15:41:24.032Z,25.10
2022-08-21T15:43:55.602Z,25.04
2022-08-21T15:46:24.547Z,25.03
2022-08-21T15:48:51.157Z,25.12
2022-08-21T15:51:24.179Z,25.32
2022-08-21T15:53:53.942Z,25.59
2022-08-21T15:56:32.399Z,25.85
2022-08-21T15:59:09.326Z,26.08
2022-08-21T16:01:44.745Z,26.13
2022-08-21T16:04:41.070Z,26.03
2022-08-21T16:07:11.261Z,25.85
2022-08-21T16:09:40.992Z,25.75
2022-08-21T16:12:20.897Z,25.67
2022-08-21T16:14:48.087Z,25.61
2022-08-21T16:17:14.735Z,25.55
2022-08-21T16:19:41.339Z,25.50
2022-08-21T16:22:08.066Z,25.48
2022-08-21T16:24:35.274Z,25.46
2022-08-21T16:27:03.722Z,25.44
2022-08-21T16:29:41.857Z,25.39
2022-08-21T16:32:09.153Z,25.29
2022-08-21T16:34:45.919Z,25.16
2022-08-21T16:37:23.948Z,25.01
2022-08-21T16:39:51.175Z,24.85
2022-08-21T16:42:26.156Z,24.74
2022-08-21T16:45:13.163Z,24.62
2022-08-21T16:47:40.019Z,24.50
2022-08-21T16:50:07.855Z,24.41
2022-08-21T16:52:37.402Z,24.32
2022-08-21T16:55:13.081Z,24.23
2022-08-21T16:57:45.253Z,24.13
2022-08-21T17:00:22.494Z,24.08
2022-08-21T17:03:03.686Z,24.00
2022-08-21T17:05:32.891Z,23.90
2022-08-21T17:08:06.800Z,23.82
2022-08-21T17:10:33.497Z,23.73
2022-08-21T17:13:00.943Z,23.65
2022-08-21T17:15:36.721Z,23.60
2022-08-21T17:18:20.414Z,23.56
2022-08-21T17:20:54.509Z,23.50
2022-08-21T17:23:21.506Z,23.47
2022-08-21T17:25:57.030Z,23.40
2022-08-21T17:28:36.654Z,23.32
2022-08-21T17:31:10.627Z,23.27
2022-08-21T17:33:47.543Z,23.23
2022-08-21T17:36:14.372Z,23.18
2022-08-21T17:38:40.994Z,23.08
2022-08-21T17:41:11.339Z,22.87
2022-08-21T17:43:39.123Z,22.76
2022-08-21T17:46:06.392Z,22.70
2022-08-21T17:48:34.131Z,22.66
2022-08-21T17:51:02.362Z,22.59
2022-08-21T17:53:28.926Z,22.57
2022-08-21T17:55:56.259Z,22.50
2022-08-21T17:58:23.122Z,22.46
2022-08-21T18:00:50.014Z,22.40
2022-08-21T18:03:19.798Z,22.34
2022-08-21T18:05:48.752Z,22.28
2022-08-21T18:08:15.984Z,22.23
2022-08-21T18:10:45.610Z,22.19
2022-08-21T18:13:17.449Z,22.15
2022-08-21T18:15:47.412Z,22.06
2022-08-21T18:18:14.003Z,22.01
2022-08-21T18:20:40.574Z,21.95
2022-08-21T18:23:07.159Z,21.90
2022-08-21T18:25:34.483Z,21.84
2022-08-21T18:28:07.084Z,21.76
2022-08-21T18:30:38.527Z,21.69
2022-08-21T18:33:05.513Z,21.65
2022-08-21T18:35:32.654Z,21.63
2022-08-21T18:37:59.316Z,21.59
2022-08-21T18:40:26.471Z,21.55
2022-08-21T18:42:55.520Z,21.49
2022-08-21T18:45:23.794Z,21.44
2022-08-21T18:47:53.731Z,21.40
2022-08-21T18:50:24.825Z,21.37
2022-08-21T18:52:53.650Z,21.35
2022-08-21T18:55:22.331Z,21.31
2022-08-21T18:57:49.299Z,21.27
2022-08-21T19:00:23.529Z,21.24
2022-08-21T19:02:51.303Z,21.19
2022-08-21T19:05:19.918Z,21.15
2022-08-21T19:07:47.003Z,21.07
2022-08-21T19:10:27.537Z,21.02
2022-08-21T19:12:59.426Z,20.96
2022-08-21T19:15:26.711Z,20.91
2022-08-21T19:17:54.641Z,20.86
2022-08-21T19:20:32.936Z,20.80
2022-08-21T19:22:59.952Z,20.75
2022-08-21T19:25:33.050Z,20.70
2022-08-21T19:28:29.799Z,20.64
2022-08-21T19:31:05.291Z,20.59
2022-08-21T19:33:36.038Z,20.54
2022-08-21T19:36:04.722Z,20.48
2022-08-21T19:38:31.453Z,20.45
2022-08-21T19:40:59.590Z,20.41
2022-08-21T19:43:26.508Z,20.35
2022-08-21T19:45:58.466Z,20.30
2022-08-21T19:48:26.035Z,20.26
2022-08-21T19:50:53.263Z,20.21
2022-08-21T19:53:20.754Z,20.18
2022-08-21T19:55:48.400Z,20.15
2022-08-21T19:58:28.355Z,20.09
2022-08-21T20:00:55.079Z,20.07
2022-08-21T20:03:21.739Z,20.04
2022-08-21T20:05:48.309Z,20.01
2022-08-21T20:08:20.476Z,19.95
2022-08-21T20:10:47.665Z,19.94
2022-08-21T20:13:21.470Z,19.88
2022-08-21T20:15:50.444Z,19.85
2022-08-21T20:18:17.635Z,19.83
2022-08-21T20:20:45.277Z,19.81
2022-08-21T20:23:15.760Z,19.80
2022-08-21T20:25:44.728Z,19.74
2022-08-21T20:28:12.240Z,19.73
2022-08-21T20:30:39.643Z,19.72
2022-08-21T20:33:14.306Z,19.72
2022-08-21T20:35:45.335Z,19.71
2022-08-21T20:38:11.928Z,19.71
2022-08-21T20:40:40.579Z,19.72
2022-08-21T20:43:12.836Z,19.70
2022-08-21T20:45:40.322Z,19.67
2022-08-21T20:48:12.837Z,19.65
2022-08-21T20:50:44.588Z,19.64
2022-08-21T20:53:58.926Z,19.60
2022-08-21T20:56:44.431Z,19.58
2022-08-21T20:59:26.601Z,19.54
2022-08-21T21:02:00.174Z,19.52
2022-08-21T21:04:42.964Z,19.49
2022-08-21T21:07:15.919Z,19.49
2022-08-21T21:09:47.714Z,19.46
2022-08-21T21:12:29.771Z,19.43
2022-08-21T21:15:05.330Z,19.40
2022-08-21T21:17:42.526Z,19.36
2022-08-21T21:20:19.586Z,19.32
2022-08-21T21:22:53.476Z,19.29
2022-08-21T21:25:39.913Z,19.22
2022-08-21T21:28:13.607Z,19.16
2022-08-21T21:30:46.889Z,19.15
2022-08-21T21:33:19.425Z,19.14
2022-08-21T21:35:55.070Z,19.15
2022-08-21T21:38:31.563Z,19.12
2022-08-21T21:41:07.658Z,19.10
2022-08-21T21:44:01.214Z,19.09
2022-08-21T21:46:48.604Z,19.04
2022-08-21T21:49:55.893Z,18.97
2022-08-21T21:52:54.693Z,18.92
2022-08-21T21:55:32.714Z,18.89
2022-08-21T22:01:11.541Z,18.84
2022-08-21T22:04:03.822Z,18.84
2022-08-21T22:06:42.057Z,18.79
2022-08-21T22:09:33.322Z,18.77
2022-08-21T22:12:18.258Z,18.72
2022-08-21T22:14:49.742Z,18.64
2022-08-21T22:17:36.225Z,18.63
2022-08-21T22:20:30.459Z,18.63
2022-08-21T22:22:58.432Z,18.60
2022-08-21T22:25:30.537Z,18.61
2022-08-21T22:28:03.847Z,18.60
2022-08-21T22:30:45.545Z,18.63
2022-08-21T22:33:21.497Z,18.63
2022-08-21T22:35:51.528Z,18.61
2022-08-21T22:38:39.549Z,18.56
2022-08-21T22:41:12.256Z,18.56
2022-08-21T22:43:55.222Z,18.56
2022-08-21T22:46:33.672Z,18.55
2022-08-21T22:49:15.894Z,18.51
2022-08-21T22:51:48.897Z,18.41
2022-08-21T22:54:40.410Z,18.31
2022-08-21T22:57:20.703Z,18.27
2022-08-21T23:00:00.603Z,18.27
2022-08-21T23:02:55.307Z,18.24
2022-08-21T23:05:30.689Z,18.23
2022-08-21T23:08:14.486Z,18.24
2022-08-21T23:10:56.506Z,18.26
2022-08-21T23:13:23.118Z,18.28
2022-08-21T23:15:57.159Z,18.27
2022-08-21T23:18:56.898Z,18.21
2022-08-21T23:21:42.258Z,18.19
2022-08-21T23:24:19.426Z,18.19
2022-08-21T23:27:10.586Z,18.17
2022-08-21T23:29:55.797Z,18.15
2022-08-21T23:32:52.388Z,18.12
2022-08-21T23:35:48.672Z,18.11
2022-08-21T23:38:43.791Z,18.03
2022-08-21T23:41:40.836Z,17.99
2022-08-21T23:44:26.085Z,17.97
2022-08-21T23:46:56.032Z,17.95
2022-08-21T23:49:56.999Z,17.96
2022-08-21T23:52:50.782Z,17.95
2022-08-21T23:55:44.398Z,17.95
2022-08-21T23:58:53.266Z,17.96
